CW7706 Weather Reports


Display with metric or nautical units.
time (UTC)temp
F
wind
direction
speed
MPH
gust
MPH
rain 1hr
in
rain 24hr
in
rain mn
in
humidity
%
barometer
mb
20200406155835 57 204 7.0 13.0 0.00 0.00 0.00 27 1018.5
20200406155336 57 140 7.0 17.0 0.00 0.00 0.00 27 1018.3
20200406154834 57 270 7.0 17.0 0.00 0.00 0.00 27 1018.3
20200406154335 56 225 6.0 14.0 0.00 0.00 0.00 29 1018.1
20200406153836 56 203 6.0 14.0 0.00 0.00 0.00 29 1018.2
20200406153337 56 153 4.0 11.0 0.00 0.00 0.00 28 1018.0
20200406152829 56 129 4.0 11.0 0.00 0.00 0.00 29 1018.0
20200406152329 55 201 5.0 12.0 0.00 0.00 0.00 30 1018.1
20200406151827 55 146 7.0 13.0 0.00 0.00 0.00 29 1018.1
20200406151330 55 144 7.0 13.0 0.00 0.00 0.00 30 1018.1
20200406150829 55 121 6.0 10.0 0.00 0.00 0.00 31 1018.0
20200406150329 54 169 6.0 10.0 0.00 0.00 0.00 32 1018.0
20200406145824 54 162 6.0 11.0 0.00 0.00 0.00 32 1018.1
20200406145325 54 177 6.0 12.0 0.00 0.00 0.00 32 1018.0
20200406144826 53 128 4.0 12.0 0.00 0.00 0.00 33 1017.9
20200406144323 53 154 4.0 10.0 0.00 0.00 0.00 33 1017.7
20200406143823 52 168 3.0 10.0 0.00 0.00 0.00 35 1017.6
20200406143323 52 135 3.0 11.0 0.00 0.00 0.00 35 1017.5
20200406142820 52 153 3.0 11.0 0.00 0.00 0.00 35 1017.4
20200406142320 52 158 4.0 9.0 0.00 0.00 0.00 35 1017.3
20200406141824 51 161 5.0 10.0 0.00 0.00 0.00 36 1017.4
20200406141319 51 163 5.0 10.0 0.00 0.00 0.00 36 1017.3
20200406140817 51 156 3.0 7.0 0.00 0.00 0.00 38 1017.3
20200406140320 51 168 2.0 7.0 0.00 0.00 0.00 38 1017.2
20200406135815 51 174 3.0 9.0 0.00 0.00 0.00 38 1017.2
20200406135314 51 174 4.0 9.0 0.00 0.00 0.00 37 1016.9
20200406134814 51 179 5.0 9.0 0.00 0.00 0.00 38 1016.9
20200406134313 50 170 4.0 9.0 0.00 0.00 0.00 38 1016.7
20200406133811 50 166 2.0 9.0 0.00 0.00 0.00 38 1016.7
20200406133311 50 214 1.0 5.0 0.00 0.00 0.00 39 1016.7
20200406132809 49 216 2.0 5.0 0.00 0.00 0.00 39 1016.7
20200406132308 49 218 1.0 4.0 0.00 0.00 0.00 39 1016.7
20200406131808 50 205 0.0 2.0 0.00 0.00 0.00 39 1016.7
20200406131307 50 205 0.0 9.0 0.00 0.00 0.00 39 1016.7
20200406130805 50 205 1.0 9.0 0.00 0.00 0.00 39 1016.7
20200406130305 50 205 2.0 9.0 0.00 0.00 0.00 38 1016.7
20200406125801 50 206 3.0 9.0 0.00 0.00 0.00 38 1016.7
20200406125300 50 167 2.0 8.0 0.00 0.00 0.00 38 1016.6
20200406124758 50 253 2.0 5.0 0.00 0.00 0.00 38 1016.5
20200406124259 50 270 1.0 5.0 0.00 0.00 0.00 37 1016.3
20200406123759 51 270 1.0 5.0 0.00 0.00 0.00 37 1016.3
20200406123300 51 268 2.0 9.0 0.00 0.00 0.00 36 1016.3
20200406122755 51 175 2.0 9.0 0.00 0.00 0.00 39 1016.2
20200406122255 51 229 2.0 5.0 0.00 0.00 0.00 40 1016.2
20200406121753 51 230 2.0 5.0 0.00 0.00 0.00 40 1016.2
20200406121254 51 233 2.0 5.0 0.00 0.00 0.00 40 1016.2
20200406120755 51 185 2.0 5.0 0.00 0.00 0.00 40 1016.1
20200406120255 51 188 2.0 8.0 0.00 0.00 0.00 42 1016.2
20200406115755 51 189 3.0 8.0 0.00 0.00 0.00 42 1016.1
20200406115250 51 175 5.0 11.0 0.00 0.00 0.00 42 1016.0
20200406114749 51 184 5.0 11.0 0.00 0.00 0.00 41 1016.0
20200406114251 52 161 4.0 10.0 0.00 0.00 0.00 41 1015.9
20200406113748 52 163 4.0 10.0 0.00 0.00 0.00 41 1015.9
20200406113249 52 230 6.0 11.0 0.00 0.00 0.00 40 1015.9
20200406112745 52 143 6.0 11.0 0.00 0.00 0.00 40 1015.8
20200406112245 52 200 4.0 11.0 0.00 0.00 0.00 41 1015.8
20200406111747 52 172 2.0 11.0 0.00 0.00 0.00 40 1015.8
20200406111246 53 229 2.0 9.0 0.00 0.00 0.00 39 1015.8
20200406110745 53 231 3.0 9.0 0.00 0.00 0.00 39 1015.9
20200406110247 53 152 5.0 18.0 0.00 0.00 0.00 39 1015.8
20200406105741 53 226 7.0 18.0 0.00 0.00 0.00 39 1015.8
20200406105243 53 168 6.0 18.0 0.00 0.00 0.00 41 1015.8
20200406104742 53 158 5.0 18.0 0.00 0.00 0.00 41 1015.8
20200406104241 53 195 5.0 18.0 0.00 0.00 0.00 41 1015.9
20200406103743 53 191 3.0 13.0 0.00 0.00 0.00 42 1015.9
20200406103243 53 105 3.0 12.0 0.00 0.00 0.00 42 1015.8
20200406102738 53 103 3.0 12.0 0.00 0.00 0.00 41 1015.6
20200406102238 53 333 2.0 7.0 0.00 0.00 0.00 41 1015.9
20200406101739 53 314 2.0 8.0 0.00 0.00 0.00 41 1015.9
20200406101239 53 300 5.0 22.0 0.00 0.00 0.00 41 1015.8
20200406100738 54 304 5.0 22.0 0.00 0.00 0.00 40 1015.8
20200406100239 54 221 3.0 12.0 0.00 0.00 0.00 40 1015.8
20200406095737 54 198 3.0 12.0 0.00 0.00 0.00 40 1015.8
20200406095237 54 322 4.0 13.0 0.00 0.00 0.00 40 1015.5
20200406094742 54 158 5.0 13.0 0.00 0.00 0.00 39 1015.6
20200406094240 54 167 5.0 19.0 0.00 0.00 0.00 39 1015.8
20200406093738 55 323 4.0 19.0 0.00 0.00 0.00 39 1015.9
20200406093253 55 335 3.0 13.0 0.00 0.00 0.00 39 1016.0
20200406092735 55 149 5.0 14.0 0.00 0.00 0.00 39 1015.9
20200406091236 55 316 4.0 15.0 0.00 0.00 0.00 38 1015.6
20200406090733 56 83 6.0 17.0 0.00 0.00 0.00 38 1015.6
20200406090233 56 228 7.0 17.0 0.00 0.00 0.00 38 1015.6
20200406085733 55 125 5.0 15.0 0.00 0.00 0.00 38 1015.6
20200406085233 56 129 5.0 13.0 0.00 0.00 0.00 37 1015.9
20200406084735 56 120 6.0 13.0 0.00 0.00 0.00 37 1015.9
20200406084235 56 322 5.0 12.0 0.00 0.00 0.00 37 1016.0
20200406083736 56 220 4.0 11.0 0.00 0.00 0.00 37 1015.6
20200406083229 56 176 4.0 12.0 0.00 0.00 0.00 37 1015.9
20200406082731 56 136 4.0 12.0 0.00 0.00 0.00 37 1015.9
20200406082230 56 139 4.0 15.0 0.00 0.00 0.00 36 1015.8
20200406081734 56 219 8.0 22.0 0.00 0.00 0.00 36 1015.6
20200406081230 56 220 9.0 22.0 0.00 0.00 0.00 36 1015.8
20200406080730 56 135 7.0 18.0 0.00 0.00 0.00 36 1015.5
20200406080230 57 226 7.0 20.0 0.00 0.00 0.00 36 1015.6
20200406075725 57 131 6.0 20.0 0.00 0.00 0.00 35 1015.8
20200406075221 57 215 6.0 19.0 0.00 0.00 0.00 35 1015.8
20200406074722 57 244 6.0 16.0 0.00 0.00 0.00 34 1015.8
20200406074223 57 56 6.0 18.0 0.00 0.00 0.00 34 1015.9
20200406073723 57 102 5.0 18.0 0.00 0.00 0.00 34 1015.8
20200406073224 57 175 5.0 18.0 0.00 0.00 0.00 34 1016.0
20200406072715 57 208 9.0 24.0 0.00 0.00 0.00 33 1016.0
20200406072215 57 179 10.0 24.0 0.00 0.00 0.00 33 1016.1
20200406071715 57 189 7.0 21.0 0.00 0.00 0.00 32 1016.0
20200406071217 57 261 4.0 21.0 0.00 0.00 0.00 32 1016.2
20200406070715 57 316 3.0 15.0 0.00 0.00 0.00 32 1016.1
20200406070217 57 10 4.0 15.0 0.00 0.00 0.00 32 1016.1
20200406065706 57 254 6.0 18.0 0.00 0.00 0.00 31 1016.2
20200406065209 57 229 5.0 18.0 0.00 0.00 0.00 31 1016.5
20200406064707 57 357 5.0 15.0 0.00 0.00 0.00 31 1016.6
20200406064208 57 351 4.0 15.0 0.00 0.00 0.00 31 1016.2
20200406063708 57 164 4.0 12.0 0.00 0.00 0.00 31 1016.1
20200406063208 57 291 5.0 17.0 0.00 0.00 0.00 30 1016.1
20200406062703 57 202 4.0 17.0 0.00 0.00 0.00 31 1016.1
20200406062205 58 204 5.0 14.0 0.00 0.00 0.00 31 1016.0
20200406061706 58 131 5.0 14.0 0.00 0.00 0.00 31 1016.1
20200406061202 58 177 6.0 15.0 0.00 0.00 0.00 30 1016.0
20200406060702 58 139 6.0 17.0 0.00 0.00 0.00 30 1015.9
20200406060414 58 137 7.0 17.0 0.00 0.00 0.00 31 1015.8
20200406055659 58 186 6.0 16.0 0.00 0.00 0.00 31 1015.9
20200406055159 58 118 6.0 16.0 0.00 0.00 0.00 31 1015.6
20200406054659 58 169 5.0 16.0 0.00 0.00 0.00 32 1015.6
20200406054200 58 357 3.0 13.0 0.00 0.00 0.00 31 1015.8
20200406053700 58 58 3.0 12.0 0.00 0.00 0.00 32 1015.9
20200406053158 58 25 4.0 12.0 0.00 0.00 0.00 31 1015.9
20200406052701 58 36 7.0 13.0 0.00 0.00 0.00 31 1015.9
20200406052153 58 114 10.0 23.0 0.00 0.00 0.00 31 1015.9
20200406051652 58 160 9.0 23.0 0.00 0.00 0.00 31 1015.8
20200406051153 58 191 6.0 14.0 0.00 0.00 0.00 31 1016.0
20200406050654 58 212 7.0 21.0 0.00 0.00 0.00 31 1015.9
20200406050152 58 32 9.0 24.0 0.00 0.00 0.00 31 1015.8
20200406045652 58 191 9.0 24.0 0.00 0.00 0.00 30 1015.9
20200406045149 58 150 6.0 17.0 0.00 0.00 0.00 31 1015.9
20200406044649 58 210 3.0 10.0 0.00 0.00 0.00 31 1015.9
20200406044150 58 339 3.0 11.0 0.00 0.00 0.00 30 1016.0
20200406043648 58 194 3.0 11.0 0.00 0.00 0.00 30 1015.9
20200406043146 58 10 2.0 8.0 0.00 0.00 0.00 30 1015.9
20200406042646 58 345 2.0 8.0 0.00 0.00 0.00 29 1015.8
20200406042143 59 115 2.0 8.0 0.00 0.00 0.00 29 1016.0
20200406041642 59 158 3.0 12.0 0.00 0.00 0.00 29 1015.9
20200406041140 59 112 3.0 12.0 0.00 0.00 0.00 28 1015.9
20200406040642 59 89 3.0 12.0 0.00 0.00 0.00 28 1015.8
20200406040140 59 234 3.0 12.0 0.00 0.00 0.00 28 1015.8
20200406035643 59 293 3.0 8.0 0.00 0.00 0.00 28 1015.8
20200406035133 59 270 3.0 8.0 0.00 0.00 0.00 28 1015.6
20200406034634 59 122 3.0 14.0 0.00 0.00 0.00 28 1015.6
20200406034134 59 75 3.0 14.0 0.00 0.00 0.00 28 1015.5
20200406033634 59 202 4.0 17.0 0.00 0.00 0.00 28 1015.5
20200406033134 59 304 5.0 17.0 0.00 0.00 0.00 28 1015.4
20200406032635 59 349 4.0 13.0 0.00 0.00 0.00 29 1015.3
20200406032132 59 282 4.0 13.0 0.00 0.00 0.00 28 1015.3
20200406031629 60 218 2.0 8.0 0.00 0.00 0.00 29 1015.2
20200406031131 60 295 3.0 9.0 0.00 0.00 0.00 29 1015.0
20200406030631 60 291 4.0 9.0 0.00 0.00 0.00 28 1015.2
20200406030129 60 340 4.0 16.0 0.00 0.00 0.00 28 1015.2
20200406025629 60 279 6.0 16.0 0.00 0.00 0.00 28 1014.9
20200406025125 61 326 5.0 13.0 0.00 0.00 0.00 28 1014.9
20200406024625 61 358 4.0 14.0 0.00 0.00 0.00 28 1014.8
20200406024125 61 298 5.0 14.0 0.00 0.00 0.00 27 1014.9
20200406023625 62 335 2.0 9.0 0.00 0.00 0.00 26 1014.8
20200406023122 62 44 3.0 14.0 0.00 0.00 0.00 23 1014.7
20200406022626 62 341 6.0 16.0 0.00 0.00 0.00 23 1014.6
20200406022116 62 131 6.0 16.0 0.00 0.00 0.00 22 1014.5
20200406021616 63 204 5.0 13.0 0.00 0.00 0.00 22 1014.5
20200406021117 63 164 4.0 13.0 0.00 0.00 0.00 22 1014.2
20200406020617 63 163 5.0 18.0 0.00 0.00 0.00 22 1014.2
20200406020118 63 168 4.0 18.0 0.00 0.00 0.00 22 1014.1
20200406015616 63 164 5.0 18.0 0.00 0.00 0.00 21 1014.1
20200406015116 63 37 8.0 18.0 0.00 0.00 0.00 20 1014.0
20200406014612 63 150 8.0 16.0 0.00 0.00 0.00 21 1013.9
20200406014111 64 189 8.0 17.0 0.00 0.00 0.00 21 1013.9
20200406013611 64 155 7.0 17.0 0.00 0.00 0.00 22 1014.0
20200406013111 64 262 8.0 16.0 0.00 0.00 0.00 21 1013.9
20200406012610 64 33 8.0 16.0 0.00 0.00 0.00 20 1013.8
20200406012112 64 168 7.0 16.0 0.00 0.00 0.00 20 1013.6
20200406011612 64 164 7.0 16.0 0.00 0.00 0.00 20 1013.8
20200406011107 65 181 8.0 18.0 0.00 0.00 0.00 20 1013.6
20200406010608 65 199 7.0 18.0 0.00 0.00 0.00 20 1013.8
20200406010106 65 187 4.0 18.0 0.00 0.00 0.00 21 1013.8
20200406005606 65 241 5.0 15.0 0.00 0.00 0.00 20 1013.8
20200406005107 65 321 7.0 17.0 0.00 0.00 0.00 19 1013.8
20200406004606 66 218 8.0 18.0 0.00 0.00 0.00 20 1013.8
20200406004105 66 158 7.0 18.0 0.00 0.00 0.00 19 1013.8
20200406003606 67 236 5.0 15.0 0.00 0.00 0.00 19 1013.9
20200406003101 67 222 4.0 12.0 0.00 0.00 0.00 21 1013.6
20200406002600 68 175 6.0 18.0 0.00 0.00 0.00 21 1013.4
20200406002101 68 181 6.0 18.0 0.00 0.00 0.00 21 1013.3
20200406001602 68 258 6.0 16.0 0.00 0.00 0.00 22 1013.4
20200406001102 68 162 6.0 20.0 0.00 0.00 0.00 22 1013.2
20200406000601 68 185 6.0 20.0 0.00 0.00 0.00 22 1013.2
20200406000056 68 156 7.0 20.0 0.00 0.00 0.00 21 1013.2
20200405235558 68 165 7.0 27.0 0.00 0.00 0.00 21 1013.4
20200405235056 69 127 6.0 27.0 0.00 0.00 0.00 20 1013.6
20200405234557 69 318 5.0 17.0 0.00 0.00 0.00 18 1013.4
20200405234057 69 58 7.0 17.0 0.00 0.00 0.00 20 1013.5
20200405233558 69 97 10.0 27.0 0.00 0.00 0.00 18 1013.2
20200405233053 70 173 9.0 27.0 0.00 0.00 0.00 18 1013.4
20200405232554 70 229 8.0 20.0 0.00 0.00 0.00 18 1013.4
20200405232054 70 177 6.0 17.0 0.00 0.00 0.00 20 1013.3
20200405231555 69 239 5.0 17.0 0.00 0.00 0.00 19 1013.5
20200405231053 69 85 6.0 19.0 0.00 0.00 0.00 21 1013.8
20200405230554 70 189 7.0 19.0 0.00 0.00 0.00 21 1013.5
20200405230053 70 316 6.0 17.0 0.00 0.00 0.00 19 1013.6
20200405225553 69 230 6.0 17.0 0.00 0.00 0.00 22 1013.4
20200405225054 69 158 6.0 17.0 0.00 0.00 0.00 21 1013.4
20200405224552 70 148 7.0 15.0 0.00 0.00 0.00 20 1013.5
20200405224051 70 329 5.0 13.0 0.00 0.00 0.00 21 1013.5
20200405223545 69 189 7.0 19.0 0.00 0.00 0.00 22 1013.5
20200405223044 68 212 8.0 19.0 0.00 0.00 0.00 19 1013.5
20200405222544 69 182 8.0 25.0 0.00 0.00 0.00 19 1013.6
20200405222044 70 315 9.0 25.0 0.00 0.00 0.00 21 1013.9
20200405221607 70 143 8.0 23.0 0.00 0.00 0.00 19 1013.6